sensor_id;sensor_type;location;lat;lon;timestamp;pressure;altitude;pressure_sealevel;temperature;humidity
21828;BME280;11076;47.942;11.804;2023-07-13T00:02:17;94318.69;;;18.28;100.00
21828;BME280;11076;47.942;11.804;2023-07-13T00:07:19;94295.41;;;18.22;100.00
21828;BME280;11076;47.942;11.804;2023-07-13T00:12:33;94299.47;;;18.29;100.00
21828;BME280;11076;47.942;11.804;2023-07-13T00:17:36;94312.19;;;18.19;100.00
21828;BME280;11076;47.942;11.804;2023-07-13T00:22:40;94302.47;;;18.23;100.00
21828;BME280;11076;47.942;11.804;2023-07-13T00:27:43;94313.81;;;18.25;100.00
21828;BME280;11076;47.942;11.804;2023-07-13T00:32:46;94311.94;;;18.36;100.00
21828;BME280;11076;47.942;11.804;2023-07-13T00:37:49;94312.72;;;18.16;100.00
21828;BME280;11076;47.942;11.804;2023-07-13T00:42:53;94314.88;;;18.14;100.00
21828;BME280;11076;47.942;11.804;2023-07-13T00:47:56;94305.94;;;18.18;100.00
21828;BME280;11076;47.942;11.804;2023-07-13T00:52:59;94321.38;;;18.13;100.00
21828;BME280;11076;47.942;11.804;2023-07-13T00:58:02;94325.97;;;18.12;100.00
21828;BME280;11076;47.942;11.804;2023-07-13T01:03:08;94318.91;;;18.06;100.00
21828;BME280;11076;47.942;11.804;2023-07-13T01:08:10;94309.97;;;18.00;100.00
21828;BME280;11076;47.942;11.804;2023-07-13T01:13:13;94302.69;;;18.01;100.00
21828;BME280;11076;47.942;11.804;2023-07-13T01:18:23;94293.75;;;17.95;100.00
21828;BME280;11076;47.942;11.804;2023-07-13T01:23:29;94297.25;;;17.85;100.00
21828;BME280;11076;47.942;11.804;2023-07-13T01:28:32;94289.06;;;17.80;100.00
21828;BME280;11076;47.942;11.804;2023-07-13T01:33:40;94270.47;;;17.84;100.00
21828;BME280;11076;47.942;11.804;2023-07-13T01:38:42;94266.13;;;17.83;100.00
21828;BME280;11076;47.942;11.804;2023-07-13T01:43:46;94274.97;;;17.68;100.00
21828;BME280;11076;47.942;11.804;2023-07-13T01:48:48;94291.97;;;17.58;100.00
21828;BME280;11076;47.942;11.804;2023-07-13T01:53:51;94281.75;;;17.65;100.00
21828;BME280;11076;47.942;11.804;2023-07-13T01:58:53;94281.44;;;17.57;100.00
21828;BME280;11076;47.942;11.804;2023-07-13T02:03:56;94296.88;;;17.61;100.00
21828;BME280;11076;47.942;11.804;2023-07-13T02:08:58;94302.50;;;17.55;100.00
21828;BME280;11076;47.942;11.804;2023-07-13T02:14:02;94304.91;;;17.46;100.00
21828;BME280;11076;47.942;11.804;2023-07-13T02:19:05;94314.31;;;17.38;100.00
21828;BME280;11076;47.942;11.804;2023-07-13T02:24:08;94317.34;;;17.47;100.00
21828;BME280;11076;47.942;11.804;2023-07-13T02:29:11;94329.25;;;17.51;100.00
21828;BME280;11076;47.942;11.804;2023-07-13T02:34:13;94331.47;;;17.59;100.00
21828;BME280;11076;47.942;11.804;2023-07-13T02:39:16;94344.47;;;17.67;100.00
21828;BME280;11076;47.942;11.804;2023-07-13T02:44:19;94348.78;;;17.68;100.00
21828;BME280;11076;47.942;11.804;2023-07-13T02:49:22;94353.94;;;17.70;100.00
21828;BME280;11076;47.942;11.804;2023-07-13T02:54:24;94352.88;;;17.76;100.00
21828;BME280;11076;47.942;11.804;2023-07-13T02:59:27;94353.13;;;17.69;100.00
21828;BME280;11076;47.942;11.804;2023-07-13T03:04:29;94358.78;;;17.68;100.00
21828;BME280;11076;47.942;11.804;2023-07-13T03:09:34;94359.84;;;17.62;100.00
21828;BME280;11076;47.942;11.804;2023-07-13T03:14:38;94369.59;;;17.68;100.00
21828;BME280;11076;47.942;11.804;2023-07-13T03:19:42;94366.63;;;17.69;100.00
21828;BME280;11076;47.942;11.804;2023-07-13T03:24:47;94363.94;;;17.69;100.00
21828;BME280;11076;47.942;11.804;2023-07-13T03:29:50;94373.69;;;17.76;100.00
21828;BME280;11076;47.942;11.804;2023-07-13T03:34:53;94382.06;;;17.74;100.00
21828;BME280;11076;47.942;11.804;2023-07-13T03:39:56;94382.06;;;17.69;100.00
21828;BME280;11076;47.942;11.804;2023-07-13T03:45:00;94388.22;;;17.64;100.00
21828;BME280;11076;47.942;11.804;2023-07-13T03:50:07;94393.13;;;17.67;100.00
21828;BME280;11076;47.942;11.804;2023-07-13T03:55:10;94394.38;;;17.55;100.00
21828;BME280;11076;47.942;11.804;2023-07-13T04:00:13;94406.03;;;17.55;100.00
21828;BME280;11076;47.942;11.804;2023-07-13T04:05:18;94406.88;;;17.61;100.00
21828;BME280;11076;47.942;11.804;2023-07-13T04:10:21;94404.19;;;17.61;100.00
21828;BME280;11076;47.942;11.804;2023-07-13T04:15:24;94405.44;;;17.48;100.00
21828;BME280;11076;47.942;11.804;2023-07-13T04:20:26;94411.41;;;17.50;100.00
21828;BME280;11076;47.942;11.804;2023-07-13T04:25:29;94426.50;;;17.46;100.00
21828;BME280;11076;47.942;11.804;2023-07-13T04:30:31;94414.66;;;17.47;100.00
21828;BME280;11076;47.942;11.804;2023-07-13T04:35:34;94427.84;;;17.43;100.00
21828;BME280;11076;47.942;11.804;2023-07-13T04:40:37;94430.50;;;17.38;100.00
21828;BME280;11076;47.942;11.804;2023-07-13T04:45:40;94428.66;;;17.44;100.00
21828;BME280;11076;47.942;11.804;2023-07-13T04:50:43;94438.41;;;17.45;100.00
21828;BME280;11076;47.942;11.804;2023-07-13T04:55:46;94435.28;;;17.68;100.00
21828;BME280;11076;47.942;11.804;2023-07-13T05:00:49;94443.63;;;17.62;100.00
21828;BME280;11076;47.942;11.804;2023-07-13T05:06:00;94450.44;;;17.69;100.00
21828;BME280;11076;47.942;11.804;2023-07-13T05:11:04;94460.97;;;17.66;100.00
21828;BME280;11076;47.942;11.804;2023-07-13T05:16:07;94446.72;;;17.81;100.00
21828;BME280;11076;47.942;11.804;2023-07-13T05:21:10;94448.94;;;17.84;100.00
21828;BME280;11076;47.942;11.804;2023-07-13T05:26:14;94454.88;;;17.86;100.00
21828;BME280;11076;47.942;11.804;2023-07-13T05:31:16;94451.63;;;17.84;100.00
21828;BME280;11076;47.942;11.804;2023-07-13T05:36:19;94451.31;;;17.80;100.00
21828;BME280;11076;47.942;11.804;2023-07-13T05:41:21;94463.84;;;17.92;100.00
21828;BME280;11076;47.942;11.804;2023-07-13T05:46:24;94459.91;;;18.15;100.00
21828;BME280;11076;47.942;11.804;2023-07-13T05:51:27;94459.06;;;18.09;100.00
21828;BME280;11076;47.942;11.804;2023-07-13T05:56:29;94458.69;;;17.90;100.00
21828;BME280;11076;47.942;11.804;2023-07-13T06:01:32;94462.53;;;18.04;100.00
21828;BME280;11076;47.942;11.804;2023-07-13T06:06:34;94471.81;;;18.19;100.00
21828;BME280;11076;47.942;11.804;2023-07-13T06:11:37;94471.56;;;18.25;100.00
21828;BME280;11076;47.942;11.804;2023-07-13T06:16:40;94473.56;;;18.56;100.00
21828;BME280;11076;47.942;11.804;2023-07-13T06:21:43;94480.72;;;19.34;100.00
21828;BME280;11076;47.942;11.804;2023-07-13T06:26:46;94472.31;;;20.57;100.00
21828;BME280;11076;47.942;11.804;2023-07-13T06:31:48;94481.94;;;20.94;97.53
21828;BME280;11076;47.942;11.804;2023-07-13T06:36:51;94493.53;;;20.60;97.48
21828;BME280;11076;47.942;11.804;2023-07-13T06:41:53;94493.47;;;20.70;96.04
21828;BME280;11076;47.942;11.804;2023-07-13T06:46:56;94504.13;;;20.61;94.23
21828;BME280;11076;47.942;11.804;2023-07-13T06:51:58;94508.25;;;20.38;94.03
21828;BME280;11076;47.942;11.804;2023-07-13T06:57:01;94511.97;;;20.53;93.75
21828;BME280;11076;47.942;11.804;2023-07-13T07:02:04;94509.44;;;20.77;90.47
21828;BME280;11076;47.942;11.804;2023-07-13T07:07:07;94503.09;;;20.97;91.63
21828;BME280;11076;47.942;11.804;2023-07-13T07:12:09;94502.94;;;20.78;90.75
21828;BME280;11076;47.942;11.804;2023-07-13T07:17:12;94488.59;;;20.67;88.64
21828;BME280;11076;47.942;11.804;2023-07-13T07:22:15;94498.16;;;21.04;90.46
21828;BME280;11076;47.942;11.804;2023-07-13T07:27:18;94509.09;;;20.94;88.96
21828;BME280;11076;47.942;11.804;2023-07-13T07:32:23;94511.22;;;21.02;89.79
21828;BME280;11076;47.942;11.804;2023-07-13T07:37:28;94521.78;;;20.54;87.66
21828;BME280;11076;47.942;11.804;2023-07-13T07:42:34;94524.00;;;20.31;89.14
21828;BME280;11076;47.942;11.804;2023-07-13T07:47:37;94529.16;;;20.38;86.97
21828;BME280;11076;47.942;11.804;2023-07-13T07:52:40;94552.78;;;20.32;87.09
21828;BME280;11076;47.942;11.804;2023-07-13T07:57:43;94563.16;;;20.04;86.77
21828;BME280;11076;47.942;11.804;2023-07-13T08:02:48;94553.41;;;19.83;86.14
21828;BME280;11076;47.942;11.804;2023-07-13T08:07:54;94562.63;;;19.97;85.76
21828;BME280;11076;47.942;11.804;2023-07-13T08:12:56;94563.16;;;20.10;85.55
21828;BME280;11076;47.942;11.804;2023-07-13T08:18:01;94562.63;;;20.08;84.07
21828;BME280;11076;47.942;11.804;2023-07-13T08:23:05;94562.31;;;20.24;84.93
21828;BME280;11076;47.942;11.804;2023-07-13T08:28:08;94573.69;;;20.32;85.88
21828;BME280;11076;47.942;11.804;2023-07-13T08:33:10;94568.03;;;20.18;85.78
21828;BME280;11076;47.942;11.804;2023-07-13T08:38:13;94576.47;;;20.06;85.63
21828;BME280;11076;47.942;11.804;2023-07-13T08:43:19;94568.06;;;19.92;86.46
21828;BME280;11076;47.942;11.804;2023-07-13T08:48:27;94576.22;;;19.82;88.23
21828;BME280;11076;47.942;11.804;2023-07-13T08:53:47;94590.81;;;19.71;86.32
21828;BME280;11076;47.942;11.804;2023-07-13T08:58:56;94595.16;;;19.66;85.48
21828;BME280;11076;47.942;11.804;2023-07-13T09:04:18;94610.28;;;19.32;82.94
21828;BME280;11076;47.942;11.804;2023-07-13T09:09:32;94601.09;;;19.43;82.22
21828;BME280;11076;47.942;11.804;2023-07-13T09:14:48;94600.03;;;19.44;83.28
21828;BME280;11076;47.942;11.804;2023-07-13T09:20:03;94610.28;;;19.32;83.75
21828;BME280;11076;47.942;11.804;2023-07-13T09:30:30;94601.69;;;19.71;83.15
21828;BME280;11076;47.942;11.804;2023-07-13T09:35:34;94598.16;;;19.70;82.84
21828;BME280;11076;47.942;11.804;2023-07-13T09:41:02;94602.72;;;19.28;82.81
21828;BME280;11076;47.942;11.804;2023-07-13T09:46:20;94604.31;;;19.14;82.89
21828;BME280;11076;47.942;11.804;2023-07-13T09:51:24;94603.22;;;19.25;83.19
21828;BME280;11076;47.942;11.804;2023-07-13T09:56:27;94608.09;;;19.23;81.26
21828;BME280;11076;47.942;11.804;2023-07-13T10:01:40;94600.00;;;19.18;82.75
21828;BME280;11076;47.942;11.804;2023-07-13T10:06:42;94610.56;;;19.25;80.74
21828;BME280;11076;47.942;11.804;2023-07-13T10:11:46;94615.22;;;19.55;81.11
21828;BME280;11076;47.942;11.804;2023-07-13T10:16:52;94626.94;;;19.92;81.27
21828;BME280;11076;47.942;11.804;2023-07-13T10:22:01;94631.56;;;19.86;81.11
21828;BME280;11076;47.942;11.804;2023-07-13T10:27:18;94642.94;;;19.83;80.59
21828;BME280;11076;47.942;11.804;2023-07-13T10:32:24;94637.50;;;20.24;81.61
21828;BME280;11076;47.942;11.804;2023-07-13T10:37:31;94642.25;;;20.89;80.57
21828;BME280;11076;47.942;11.804;2023-07-13T10:42:42;94643.53;;;21.06;77.61
21828;BME280;11076;47.942;11.804;2023-07-13T10:47:48;94651.84;;;21.36;77.19
21828;BME280;11076;47.942;11.804;2023-07-13T10:52:54;94646.44;;;22.15;74.09
21828;BME280;11076;47.942;11.804;2023-07-13T10:58:02;94648.94;;;22.94;70.96
21828;BME280;11076;47.942;11.804;2023-07-13T11:03:13;94638.69;;;23.34;68.67
21828;BME280;11076;47.942;11.804;2023-07-13T11:08:21;94653.88;;;22.92;67.34
21828;BME280;11076;47.942;11.804;2023-07-13T11:18:51;94641.72;;;23.51;65.42
21828;BME280;11076;47.942;11.804;2023-07-13T11:24:02;94637.00;;;23.76;63.89
21828;BME280;11076;47.942;11.804;2023-07-13T11:34:29;94635.88;;;23.77;61.39
21828;BME280;11076;47.942;11.804;2023-07-13T11:39:35;94622.09;;;23.68;60.17
21828;BME280;11076;47.942;11.804;2023-07-13T11:44:43;94617.91;;;22.90;62.67
21828;BME280;11076;47.942;11.804;2023-07-13T11:49:53;94610.72;;;22.99;62.90
21828;BME280;11076;47.942;11.804;2023-07-13T11:55:00;94615.38;;;22.50;63.39
21828;BME280;11076;47.942;11.804;2023-07-13T12:00:16;94599.25;;;22.54;59.37
21828;BME280;11076;47.942;11.804;2023-07-13T12:05:19;94592.47;;;22.75;56.54
21828;BME280;11076;47.942;11.804;2023-07-13T12:10:28;94602.44;;;22.61;54.94
21828;BME280;11076;47.942;11.804;2023-07-13T12:15:42;94591.53;;;22.85;56.04
21828;BME280;11076;47.942;11.804;2023-07-13T12:20:46;94580.94;;;22.83;54.63
21828;BME280;11076;47.942;11.804;2023-07-13T12:25:50;94582.34;;;23.43;53.60
21828;BME280;11076;47.942;11.804;2023-07-13T12:30:57;94577.63;;;23.68;51.33
21828;BME280;11076;47.942;11.804;2023-07-13T12:36:02;94575.00;;;23.25;47.89
21828;BME280;11076;47.942;11.804;2023-07-13T12:41:08;94570.63;;;23.61;49.45
21828;BME280;11076;47.942;11.804;2023-07-13T12:46:21;94571.28;;;23.53;50.72
21828;BME280;11076;47.942;11.804;2023-07-13T12:51:26;94568.78;;;23.76;50.01
21828;BME280;11076;47.942;11.804;2023-07-13T12:56:32;94568.34;;;24.34;49.06
21828;BME280;11076;47.942;11.804;2023-07-13T13:01:35;94558.13;;;24.40;49.11
21828;BME280;11076;47.942;11.804;2023-07-13T13:06:41;94562.59;;;24.03;51.04
21828;BME280;11076;47.942;11.804;2023-07-13T13:11:45;94564.06;;;23.62;52.29
21828;BME280;11076;47.942;11.804;2023-07-13T13:16:49;94554.91;;;24.05;51.52
21828;BME280;11076;47.942;11.804;2023-07-13T13:21:54;94550.22;;;23.02;52.26
21828;BME280;11076;47.942;11.804;2023-07-13T13:26:58;94549.84;;;23.28;53.92
21828;BME280;11076;47.942;11.804;2023-07-13T13:32:00;94552.47;;;23.90;52.31
21828;BME280;11076;47.942;11.804;2023-07-13T13:37:03;94561.69;;;23.75;52.73
21828;BME280;11076;47.942;11.804;2023-07-13T13:42:11;94553.84;;;23.87;53.97
21828;BME280;11076;47.942;11.804;2023-07-13T13:47:30;94555.06;;;23.81;53.38
21828;BME280;11076;47.942;11.804;2023-07-13T13:52:33;94551.31;;;25.34;51.63
21828;BME280;11076;47.942;11.804;2023-07-13T13:57:36;94556.41;;;25.86;48.84
21828;BME280;11076;47.942;11.804;2023-07-13T14:02:38;94548.19;;;26.31;48.86
21828;BME280;11076;47.942;11.804;2023-07-13T14:07:41;94550.41;;;26.21;46.78
21828;BME280;11076;47.942;11.804;2023-07-13T14:12:45;94556.28;;;26.36;47.29
21828;BME280;11076;47.942;11.804;2023-07-13T14:17:49;94554.06;;;25.71;46.89
21828;BME280;11076;47.942;11.804;2023-07-13T14:22:52;94553.00;;;25.22;48.97
21828;BME280;11076;47.942;11.804;2023-07-13T14:27:57;94540.88;;;24.72;48.92
21828;BME280;11076;47.942;11.804;2023-07-13T14:33:10;94545.59;;;25.08;50.10
21828;BME280;11076;47.942;11.804;2023-07-13T14:38:16;94555.94;;;25.11;50.17
21828;BME280;11076;47.942;11.804;2023-07-13T14:43:19;94548.75;;;24.88;51.04
21828;BME280;11076;47.942;11.804;2023-07-13T14:48:24;94543.06;;;25.26;48.21
21828;BME280;11076;47.942;11.804;2023-07-13T14:53:26;94531.81;;;25.13;49.55
21828;BME280;11076;47.942;11.804;2023-07-13T14:58:32;94544.56;;;25.18;48.40
21828;BME280;11076;47.942;11.804;2023-07-13T15:03:35;94534.66;;;25.08;49.00
21828;BME280;11076;47.942;11.804;2023-07-13T15:08:39;94528.09;;;24.81;49.53
21828;BME280;11076;47.942;11.804;2023-07-13T15:13:45;94538.72;;;24.41;50.81
21828;BME280;11076;47.942;11.804;2023-07-13T15:18:47;94520.50;;;24.78;49.92
21828;BME280;11076;47.942;11.804;2023-07-13T15:23:50;94526.47;;;24.94;47.43
21828;BME280;11076;47.942;11.804;2023-07-13T15:28:53;94525.47;;;24.90;49.03
21828;BME280;11076;47.942;11.804;2023-07-13T15:33:56;94522.00;;;24.85;48.56
21828;BME280;11076;47.942;11.804;2023-07-13T15:38:59;94523.75;;;24.67;49.03
21828;BME280;11076;47.942;11.804;2023-07-13T15:44:07;94533.88;;;24.66;48.97
21828;BME280;11076;47.942;11.804;2023-07-13T15:49:22;94535.88;;;25.02;49.05
21828;BME280;11076;47.942;11.804;2023-07-13T15:54:25;94534.91;;;25.20;47.26
21828;BME280;11076;47.942;11.804;2023-07-13T15:59:27;94524.59;;;25.17;46.56
21828;BME280;11076;47.942;11.804;2023-07-13T16:04:30;94536.28;;;24.40;47.78
21828;BME280;11076;47.942;11.804;2023-07-13T16:09:32;94539.19;;;23.83;48.14
21828;BME280;11076;47.942;11.804;2023-07-13T16:14:34;94540.59;;;23.61;48.80
21828;BME280;11076;47.942;11.804;2023-07-13T16:19:37;94551.31;;;23.58;49.07
21828;BME280;11076;47.942;11.804;2023-07-13T16:24:40;94543.16;;;23.91;49.34
21828;BME280;11076;47.942;11.804;2023-07-13T16:29:42;94551.31;;;24.10;48.96
21828;BME280;11076;47.942;11.804;2023-07-13T16:34:44;94563.13;;;23.34;49.60
21828;BME280;11076;47.942;11.804;2023-07-13T16:39:52;94563.34;;;23.38;48.85
21828;BME280;11076;47.942;11.804;2023-07-13T16:44:55;94572.69;;;23.51;49.09
21828;BME280;11076;47.942;11.804;2023-07-13T16:49:58;94558.97;;;23.37;49.29
21828;BME280;11076;47.942;11.804;2023-07-13T16:55:00;94567.91;;;23.23;49.55
21828;BME280;11076;47.942;11.804;2023-07-13T17:00:18;94567.91;;;22.99;49.76
21828;BME280;11076;47.942;11.804;2023-07-13T17:05:21;94568.28;;;22.93;49.83
21828;BME280;11076;47.942;11.804;2023-07-13T17:10:25;94554.88;;;23.91;48.99
21828;BME280;11076;47.942;11.804;2023-07-13T17:15:29;94561.59;;;24.46;47.78
21828;BME280;11076;47.942;11.804;2023-07-13T17:20:35;94561.88;;;24.44;47.05
21828;BME280;11076;47.942;11.804;2023-07-13T17:25:39;94574.81;;;24.38;46.46
21828;BME280;11076;47.942;11.804;2023-07-13T17:30:43;94568.53;;;24.24;47.14
21828;BME280;11076;47.942;11.804;2023-07-13T17:35:46;94567.91;;;24.27;47.50
21828;BME280;11076;47.942;11.804;2023-07-13T17:40:48;94578.16;;;24.21;47.38
21828;BME280;11076;47.942;11.804;2023-07-13T17:45:54;94572.56;;;24.27;48.38
21828;BME280;11076;47.942;11.804;2023-07-13T17:50:58;94575.00;;;24.28;48.91
21828;BME280;11076;47.942;11.804;2023-07-13T17:56:01;94575.97;;;24.05;49.43
21828;BME280;11076;47.942;11.804;2023-07-13T18:01:16;94577.63;;;23.87;49.69
21828;BME280;11076;47.942;11.804;2023-07-13T18:06:31;94576.16;;;23.18;50.99
21828;BME280;11076;47.942;11.804;2023-07-13T18:11:34;94575.88;;;22.96;51.57
21828;BME280;11076;47.942;11.804;2023-07-13T18:16:37;94577.56;;;22.68;52.78
21828;BME280;11076;47.942;11.804;2023-07-13T18:21:40;94586.72;;;21.60;54.88
21828;BME280;11076;47.942;11.804;2023-07-13T18:26:43;94583.31;;;20.89;57.07
21828;BME280;11076;47.942;11.804;2023-07-13T18:31:45;94594.81;;;20.45;59.03
21828;BME280;11076;47.942;11.804;2023-07-13T18:36:48;94598.97;;;20.17;60.93
21828;BME280;11076;47.942;11.804;2023-07-13T18:41:52;94592.47;;;20.02;61.07
21828;BME280;11076;47.942;11.804;2023-07-13T18:46:54;94602.25;;;19.78;62.29
21828;BME280;11076;47.942;11.804;2023-07-13T18:51:58;94600.84;;;19.44;64.24
21828;BME280;11076;47.942;11.804;2023-07-13T18:57:00;94599.44;;;19.16;65.63
21828;BME280;11076;47.942;11.804;2023-07-13T19:02:09;94596.94;;;18.99;67.19
21828;BME280;11076;47.942;11.804;2023-07-13T19:07:12;94596.63;;;18.85;68.60
21828;BME280;11076;47.942;11.804;2023-07-13T19:12:17;94606.25;;;18.66;70.99
21828;BME280;11076;47.942;11.804;2023-07-13T19:17:20;94617.38;;;18.64;71.69
21828;BME280;11076;47.942;11.804;2023-07-13T19:22:23;94617.63;;;18.68;72.63
21828;BME280;11076;47.942;11.804;2023-07-13T19:27:26;94626.69;;;18.84;73.53
21828;BME280;11076;47.942;11.804;2023-07-13T19:32:28;94626.44;;;18.96;73.98
21828;BME280;11076;47.942;11.804;2023-07-13T19:37:32;94634.56;;;18.91;75.11
21828;BME280;11076;47.942;11.804;2023-07-13T19:42:38;94646.81;;;19.03;75.22
21828;BME280;11076;47.942;11.804;2023-07-13T19:47:41;94653.59;;;19.11;75.58
21828;BME280;11076;47.942;11.804;2023-07-13T19:52:51;94661.78;;;19.26;75.07
21828;BME280;11076;47.942;11.804;2023-07-13T19:57:55;94659.66;;;19.39;74.86
21828;BME280;11076;47.942;11.804;2023-07-13T20:02:58;94674.00;;;19.29;75.60
21828;BME280;11076;47.942;11.804;2023-07-13T20:08:05;94682.41;;;19.33;75.76
21828;BME280;11076;47.942;11.804;2023-07-13T20:13:13;94684.84;;;19.29;76.21
21828;BME280;11076;47.942;11.804;2023-07-13T20:18:17;94685.59;;;19.19;76.94
21828;BME280;11076;47.942;11.804;2023-07-13T20:23:21;94695.94;;;19.22;77.26
21828;BME280;11076;47.942;11.804;2023-07-13T20:28:28;94688.88;;;19.21;77.52
21828;BME280;11076;47.942;11.804;2023-07-13T20:33:30;94693.47;;;19.21;77.78
21828;BME280;11076;47.942;11.804;2023-07-13T20:38:33;94708.94;;;19.20;78.18
21828;BME280;11076;47.942;11.804;2023-07-13T20:43:36;94705.09;;;19.06;78.93
21828;BME280;11076;47.942;11.804;2023-07-13T20:48:43;94700.81;;;18.78;79.17
21828;BME280;11076;47.942;11.804;2023-07-13T20:53:52;94714.38;;;18.35;80.29
21828;BME280;11076;47.942;11.804;2023-07-13T20:58:56;94708.75;;;18.09;81.57
21828;BME280;11076;47.942;11.804;2023-07-13T21:04:00;94722.13;;;17.89;82.29
21828;BME280;11076;47.942;11.804;2023-07-13T21:09:30;94721.00;;;17.85;82.77
21828;BME280;11076;47.942;11.804;2023-07-13T21:14:32;94715.50;;;17.80;83.15
21828;BME280;11076;47.942;11.804;2023-07-13T21:19:35;94712.63;;;17.64;83.19
21828;BME280;11076;47.942;11.804;2023-07-13T21:24:37;94721.19;;;17.56;83.24
21828;BME280;11076;47.942;11.804;2023-07-13T21:29:39;94725.44;;;17.47;83.56
21828;BME280;11076;47.942;11.804;2023-07-13T21:34:43;94724.63;;;17.24;84.37
21828;BME280;11076;47.942;11.804;2023-07-13T21:39:51;94732.16;;;17.22;84.94
21828;BME280;11076;47.942;11.804;2023-07-13T21:44:54;94725.16;;;17.21;84.81
21828;BME280;11076;47.942;11.804;2023-07-13T21:49:56;94729.34;;;17.12;84.89
21828;BME280;11076;47.942;11.804;2023-07-13T21:54:59;94732.00;;;17.07;84.55
21828;BME280;11076;47.942;11.804;2023-07-13T22:00:01;94724.13;;;16.83;84.92
21828;BME280;11076;47.942;11.804;2023-07-13T22:05:16;94726.72;;;16.78;84.49
21828;BME280;11076;47.942;11.804;2023-07-13T22:10:21;94725.59;;;16.74;84.09
21828;BME280;11076;47.942;11.804;2023-07-13T22:15:24;94725.88;;;16.56;84.55
21828;BME280;11076;47.942;11.804;2023-07-13T22:20:30;94717.63;;;16.45;84.97
21828;BME280;11076;47.942;11.804;2023-07-13T22:25:32;94717.25;;;16.20;86.47
21828;BME280;11076;47.942;11.804;2023-07-13T22:30:35;94709.00;;;16.09;86.60
21828;BME280;11076;47.942;11.804;2023-07-13T22:35:38;94706.84;;;15.95;87.47
21828;BME280;11076;47.942;11.804;2023-07-13T22:40:40;94708.06;;;15.87;88.16
21828;BME280;11076;47.942;11.804;2023-07-13T22:45:45;94718.84;;;15.87;88.97
21828;BME280;11076;47.942;11.804;2023-07-13T22:50:48;94712.47;;;15.93;89.69
21828;BME280;11076;47.942;11.804;2023-07-13T22:55:52;94711.91;;;15.91;89.64
21828;BME280;11076;47.942;11.804;2023-07-13T23:00:57;94707.09;;;15.93;90.40
21828;BME280;11076;47.942;11.804;2023-07-13T23:06:01;94700.97;;;15.81;90.94
21828;BME280;11076;47.942;11.804;2023-07-13T23:11:04;94697.84;;;15.89;91.32
21828;BME280;11076;47.942;11.804;2023-07-13T23:16:11;94702.09;;;15.85;91.99
21828;BME280;11076;47.942;11.804;2023-07-13T23:21:16;94711.75;;;15.81;92.62
21828;BME280;11076;47.942;11.804;2023-07-13T23:26:21;94700.75;;;15.70;93.73
21828;BME280;11076;47.942;11.804;2023-07-13T23:31:25;94697.09;;;15.60;95.06
21828;BME280;11076;47.942;11.804;2023-07-13T23:36:28;94699.91;;;15.53;95.84
21828;BME280;11076;47.942;11.804;2023-07-13T23:41:31;94699.84;;;15.48;96.91
21828;BME280;11076;47.942;11.804;2023-07-13T23:51:44;94698.59;;;15.56;96.69
21828;BME280;11076;47.942;11.804;2023-07-13T23:56:48;94699.84;;;15.48;97.00
